Time;durP1;ratioP1;P1;durP2;ratioP2;P2;SDS_P1;SDS_P2;PMS_P1;PMS_P2;Temp;Humidity;BMP_temperature;BMP_pressure;BME280_temperature;BME280_humidity;BME280_pressure;Samples;Min_cycle;Max_cycle;Signal;HPM_P1;HPM_P2
2022/09/12 00:00:27;;;;;;;2.85;1.80;;;23.60;68.00;;;;;;5045087;28;20068;-60
2022/09/12 00:02:53;;;;;;;4.10;1.77;;;23.60;68.00;;;;;;5045548;28;20163;-59
2022/09/12 00:05:19;;;;;;;3.15;1.65;;;23.60;67.90;;;;;;5045968;28;20396;-60
2022/09/12 00:07:44;;;;;;;3.08;1.63;;;23.60;67.90;;;;;;5044920;28;20025;-60
2022/09/12 00:10:10;;;;;;;3.70;2.00;;;23.60;68.00;;;;;;5044990;28;20059;-59
2022/09/12 00:12:35;;;;;;;2.60;1.80;;;23.60;68.00;;;;;;5041319;28;20029;-60
2022/09/12 00:15:02;;;;;;;3.33;1.70;;;23.60;68.10;;;;;;5046382;28;20503;-60
2022/09/12 00:17:27;;;;;;;3.13;1.63;;;23.60;68.00;;;;;;5025642;28;20059;-61
2022/09/12 00:19:53;;;;;;;3.30;1.90;;;23.60;68.00;;;;;;5044896;28;20052;-59
2022/09/12 00:22:19;;;;;;;3.08;1.80;;;23.60;68.00;;;;;;5043417;28;20021;-60
2022/09/12 00:24:45;;;;;;;2.58;1.70;;;23.60;68.10;;;;;;5044379;28;20446;-59
2022/09/12 00:27:10;;;;;;;3.40;1.90;;;23.60;68.00;;;;;;5046068;28;20060;-60
2022/09/12 00:29:36;;;;;;;2.55;1.70;;;23.50;68.00;;;;;;5044000;28;20166;-60
2022/09/12 00:32:02;;;;;;;3.00;1.50;;;23.50;68.00;;;;;;5043373;28;20048;-61
2022/09/12 00:34:27;;;;;;;2.63;1.70;;;23.50;68.00;;;;;;5041885;28;20076;-61
2022/09/12 00:36:53;;;;;;;3.20;1.73;;;23.50;68.00;;;;;;5044006;28;20512;-60
2022/09/12 00:39:19;;;;;;;2.95;1.70;;;23.50;68.00;;;;;;5038063;28;20406;-59
2022/09/12 00:41:44;;;;;;;3.72;1.65;;;23.50;67.90;;;;;;5043082;28;20028;-59
2022/09/12 00:44:23;;;;;;;2.47;1.75;;;23.50;67.90;;;;;;5043008;28;20040;-61
2022/09/12 00:47:10;;;;;;;4.18;1.58;;;23.50;68.00;;;;;;5038999;28;20485;-60
2022/09/12 00:49:45;;;;;;;3.42;1.83;;;23.50;67.90;;;;;;5024958;28;20469;-60
2022/09/12 00:52:12;;;;;;;2.20;1.50;;;23.50;68.00;;;;;;5040714;28;20033;-59
2022/09/12 00:54:40;;;;;;;2.78;1.63;;;23.50;67.90;;;;;;5024301;28;20037;-59
2022/09/12 00:57:06;;;;;;;3.45;1.60;;;23.50;67.90;;;;;;5023376;28;20087;-59
2022/09/12 00:59:39;;;;;;;2.47;1.58;;;23.50;67.90;;;;;;5042070;28;20033;-60
2022/09/12 01:02:05;;;;;;;2.83;1.42;;;23.50;68.00;;;;;;5025983;28;20022;-60
2022/09/12 01:04:31;;;;;;;3.05;1.75;;;23.50;67.90;;;;;;5025903;28;20025;-61
2022/09/12 01:06:57;;;;;;;2.78;1.60;;;23.50;67.90;;;;;;5045881;28;20086;-59
2022/09/12 01:09:23;;;;;;;3.33;1.48;;;23.50;67.90;;;;;;5026575;28;20107;-59
2022/09/12 01:11:49;;;;;;;2.83;1.70;;;23.40;67.90;;;;;;5027119;28;20516;-59
2022/09/12 01:14:15;;;;;;;3.40;1.70;;;23.40;67.90;;;;;;5025373;28;20106;-59
2022/09/12 01:16:41;;;;;;;2.60;1.70;;;23.40;67.90;;;;;;5017701;28;20036;-59
2022/09/12 01:19:11;;;;;;;2.55;1.67;;;23.40;67.90;;;;;;5024728;28;20046;-60
2022/09/12 01:21:55;;;;;;;2.47;1.70;;;23.40;67.90;;;;;;5024489;28;20402;-59
2022/09/12 01:24:27;;;;;;;3.25;1.65;;;23.40;67.90;;;;;;5024425;28;20120;-59
2022/09/12 01:27:28;;;;;;;3.40;1.70;;;23.40;67.90;;;;;;5022795;28;20091;-59
2022/09/12 01:30:13;;;;;;;2.75;1.60;;;23.40;68.00;;;;;;4952127;28;20667;-60
2022/09/12 01:32:46;;;;;;;2.78;1.50;;;23.40;67.90;;;;;;4957891;28;20035;-59
2022/09/12 01:35:15;;;;;;;2.80;1.63;;;23.40;67.90;;;;;;4946840;28;20558;-59
2022/09/12 01:37:53;;;;;;;2.17;1.40;;;23.40;67.90;;;;;;4958562;28;20225;-59
2022/09/12 01:40:38;;;;;;;1.73;1.35;;;23.40;67.90;;;;;;4959479;28;20043;-59
2022/09/12 01:43:35;;;;;;;3.67;1.60;;;23.40;67.90;;;;;;4959597;28;20139;-59
2022/09/12 01:46:16;;;;;;;3.75;1.55;;;23.30;67.80;;;;;;4954570;28;20058;-59
2022/09/12 01:49:06;;;;;;;3.08;1.60;;;23.30;67.80;;;;;;4961591;28;20034;-59
2022/09/12 01:51:38;;;;;;;3.28;1.60;;;23.30;67.80;;;;;;4960249;28;20031;-59
2022/09/12 01:54:07;;;;;;;1.40;1.30;;;23.40;67.80;;;;;;4928083;28;20527;-60
2022/09/12 01:56:34;;;;;;;3.33;1.55;;;23.30;67.80;;;;;;4957571;28;20027;-60
2022/09/12 01:59:05;;;;;;;1.85;1.40;;;23.30;67.80;;;;;;4929579;28;20415;-59
2022/09/12 02:01:32;;;;;;;1.88;1.38;;;23.30;67.80;;;;;;4960238;28;20035;-59
2022/09/12 02:04:17;;;;;;;2.75;1.50;;;23.30;68.80;;;;;;4943650;28;20479;-59
2022/09/12 02:06:46;;;;;;;;;;;23.30;67.80;;;;;;5018653;28;20043;-59
2022/09/12 02:09:19;;;;;;;3.30;1.40;;;23.30;67.80;;;;;;5027931;28;19940;-59
2022/09/12 02:11:45;;;;;;;2.15;1.30;;;23.30;67.80;;;;;;5024160;28;20029;-59
2022/09/12 02:14:23;;;;;;;2.20;1.35;;;23.30;67.80;;;;;;5033942;28;20038;-61
2022/09/12 02:16:51;;;;;;;3.67;1.90;;;23.30;68.80;;;;;;5008810;28;20039;-59
2022/09/12 02:19:26;;;;;;;2.45;1.60;;;23.30;67.80;;;;;;5005420;28;20089;-59
2022/09/12 02:21:57;;;;;;;4.18;1.60;;;23.30;67.80;;;;;;5005610;28;20025;-59
2022/09/12 02:24:28;;;;;;;2.67;1.60;;;23.30;67.80;;;;;;5005632;28;20477;-59
2022/09/12 02:27:15;;;;;;;2.70;1.60;;;23.30;67.80;;;;;;5006734;28;20077;-59
2022/09/12 02:29:43;;;;;;;3.38;1.50;;;23.20;67.70;;;;;;5006590;28;20030;-60
2022/09/12 02:32:18;;;;;;;2.70;1.45;;;23.20;67.60;;;;;;5007066;28;20517;-59
2022/09/12 02:35:17;;;;;;;2.92;1.75;;;23.20;67.70;;;;;;5005892;28;20029;-59
2022/09/12 02:37:45;;;;;;;2.28;1.50;;;23.20;67.70;;;;;;4954753;28;20420;-59
2022/09/12 02:40:10;;;;;;;2.03;1.38;;;23.20;67.60;;;;;;4964226;28;20042;-61
2022/09/12 02:42:36;;;;;;;2.47;1.48;;;23.20;67.60;;;;;;4966207;28;20458;-59
2022/09/12 02:45:02;;;;;;;2.80;1.77;;;23.20;67.60;;;;;;4966687;28;20096;-60
2022/09/12 02:47:33;;;;;;;3.33;1.60;;;23.20;67.60;;;;;;4963760;28;21217;-60
2022/09/12 02:49:59;;;;;;;3.53;1.60;;;23.20;67.60;;;;;;4967518;28;20507;-59
2022/09/12 02:52:25;;;;;;;1.67;1.30;;;23.20;67.60;;;;;;4967506;28;20034;-59
2022/09/12 02:54:51;;;;;;;2.10;1.60;;;23.20;67.60;;;;;;4967325;28;20055;-60
2022/09/12 02:57:18;;;;;;;2.30;1.63;;;23.20;67.60;;;;;;4965566;28;20114;-60
2022/09/12 02:59:44;;;;;;;1.98;1.45;;;23.20;67.60;;;;;;4965483;28;20035;-59
2022/09/12 03:02:54;;;;;;;3.55;1.40;;;23.20;67.60;;;;;;4949329;28;20038;-59
2022/09/12 03:05:46;;;;;;;2.80;1.60;;;23.20;67.60;;;;;;4908163;29;20040;-59
2022/09/12 03:08:34;;;;;;;2.38;1.30;;;23.20;67.60;;;;;;4907535;29;20044;-59
2022/09/12 03:11:40;;;;;;;2.55;1.52;;;23.20;67.60;;;;;;4896004;29;20032;-59
2022/09/12 03:14:06;;;;;;;2.53;1.40;;;23.10;67.60;;;;;;4877638;29;20091;-59
2022/09/12 03:17:18;;;;;;;2.95;1.50;;;23.20;67.70;;;;;;4891056;29;22488;-59
2022/09/12 03:20:08;;;;;;;2.10;1.50;;;23.10;67.60;;;;;;4885941;29;20047;-59
2022/09/12 03:23:04;;;;;;;1.70;1.30;;;23.20;67.70;;;;;;4908608;29;20044;-59
2022/09/12 03:25:35;;;;;;;2.03;1.20;;;23.10;67.60;;;;;;4910671;29;20433;-60
2022/09/12 03:28:13;;;;;;;2.33;1.33;;;23.10;67.60;;;;;;4911359;29;20500;-59
2022/09/12 03:30:46;;;;;;;2.10;1.40;;;23.10;67.60;;;;;;4909646;29;20087;-59
2022/09/12 03:33:14;;;;;;;2.58;1.50;;;23.10;67.60;;;;;;4906479;29;20123;-60
2022/09/12 03:35:40;;;;;;;2.33;1.38;;;23.10;67.60;;;;;;4910781;29;20607;-60
2022/09/12 03:38:06;;;;;;;2.90;1.50;;;23.10;67.70;;;;;;4907558;29;20406;-60
2022/09/12 03:40:33;;;;;;;1.67;1.40;;;23.10;67.60;;;;;;4910498;29;20131;-59
2022/09/12 03:42:59;;;;;;;2.50;1.35;;;23.10;67.70;;;;;;4985802;28;20613;-60
2022/09/12 03:45:24;;;;;;;1.92;1.30;;;23.10;67.70;;;;;;4985630;28;20121;-59
2022/09/12 03:47:50;;;;;;;2.22;1.30;;;23.10;67.60;;;;;;4980949;28;20048;-60
2022/09/12 03:50:16;;;;;;;2.33;1.30;;;23.10;67.60;;;;;;5014196;28;20046;-59
2022/09/12 03:52:42;;;;;;;2.17;1.45;;;23.10;67.60;;;;;;5025220;28;20032;-59
2022/09/12 03:55:08;;;;;;;2.72;1.50;;;23.10;67.70;;;;;;5022771;28;20049;-59
2022/09/12 03:57:37;;;;;;;3.70;1.40;;;23.10;67.70;;;;;;5029262;28;20573;-59
2022/09/12 04:00:05;;;;;;;2.15;1.40;;;23.00;67.70;;;;;;5023447;28;20025;-60
2022/09/12 04:02:32;;;;;;;2.35;1.30;;;23.10;67.70;;;;;;5021039;28;20084;-59
2022/09/12 04:04:58;;;;;;;2.72;1.45;;;23.00;67.70;;;;;;5023615;28;20032;-59
2022/09/12 04:07:23;;;;;;;3.10;1.50;;;23.00;67.70;;;;;;5045770;28;20401;-59
2022/09/12 04:09:49;;;;;;;1.77;1.30;;;23.00;67.70;;;;;;5020938;28;20041;-59
2022/09/12 04:12:15;;;;;;;1.95;1.30;;;23.00;68.70;;;;;;5024437;28;20029;-59
2022/09/12 04:14:41;;;;;;;1.88;1.27;;;23.00;67.70;;;;;;5026865;28;20408;-59
2022/09/12 04:17:07;;;;;;;1.42;1.30;;;23.00;67.80;;;;;;5036765;28;20030;-59
2022/09/12 04:19:32;;;;;;;3.10;1.50;;;23.00;67.70;;;;;;5023812;28;20049;-59
2022/09/12 04:21:58;;;;;;;3.20;1.33;;;23.00;67.70;;;;;;5022116;28;20103;-59
2022/09/12 04:24:24;;;;;;;2.72;1.30;;;23.00;67.70;;;;;;5024330;28;20057;-59
2022/09/12 04:26:50;;;;;;;2.30;1.27;;;23.00;67.70;;;;;;5023217;28;20109;-59
2022/09/12 04:29:16;;;;;;;2.03;1.35;;;23.00;67.80;;;;;;5022414;28;22684;-59
2022/09/12 04:31:42;;;;;;;1.40;1.13;;;23.00;67.70;;;;;;5022785;28;20155;-59
2022/09/12 04:34:08;;;;;;;2.08;1.30;;;23.00;67.70;;;;;;5025510;28;20041;-59
2022/09/12 04:36:33;;;;;;;1.70;1.40;;;23.00;67.70;;;;;;5023690;28;20025;-59
2022/09/12 04:38:59;;;;;;;2.42;1.13;;;23.00;67.70;;;;;;5024392;28;20034;-59
2022/09/12 04:41:30;;;;;;;2.15;1.38;;;23.00;67.70;;;;;;5024518;28;20025;-60
2022/09/12 04:43:57;;;;;;;3.30;1.40;;;23.00;67.70;;;;;;5021050;28;20021;-60
2022/09/12 04:46:23;;;;;;;1.90;1.23;;;23.00;67.70;;;;;;5024323;28;20643;-59
2022/09/12 04:48:49;;;;;;;2.08;1.40;;;23.00;67.70;;;;;;5025988;28;20033;-59
2022/09/12 04:51:16;;;;;;;2.50;1.25;;;23.00;67.70;;;;;;5022217;28;20104;-59
2022/09/12 04:53:42;;;;;;;4.05;1.33;;;23.00;67.70;;;;;;5024918;28;20034;-59
2022/09/12 04:56:09;;;;;;;2.70;1.48;;;22.90;67.70;;;;;;5024013;28;20040;-59
2022/09/12 04:58:35;;;;;;;1.40;1.30;;;22.90;67.70;;;;;;5018818;28;20116;-61
2022/09/12 05:01:05;;;;;;;1.90;1.30;;;22.90;67.70;;;;;;5022485;28;20144;-59
2022/09/12 05:03:31;;;;;;;2.17;1.30;;;23.00;67.80;;;;;;5022311;28;20071;-60
2022/09/12 05:05:57;;;;;;;1.67;1.40;;;22.90;67.70;;;;;;5018745;28;20574;-59
2022/09/12 05:08:23;;;;;;;1.77;1.27;;;23.00;67.80;;;;;;5024063;28;20127;-59
2022/09/12 05:10:48;;;;;;;1.20;1.02;;;22.90;67.80;;;;;;5020030;28;20041;-59
2022/09/12 05:13:14;;;;;;;2.08;1.25;;;22.90;67.70;;;;;;5020514;28;20035;-59
2022/09/12 05:15:39;;;;;;;1.80;1.30;;;22.90;67.80;;;;;;5024771;28;20498;-60
2022/09/12 05:18:05;;;;;;;1.40;1.10;;;22.90;67.70;;;;;;5018959;28;20493;-60
2022/09/12 05:20:32;;;;;;;2.78;1.50;;;22.90;67.70;;;;;;5043464;28;20063;-59
2022/09/12 05:22:58;;;;;;;2.03;1.40;;;22.90;67.70;;;;;;5041560;28;20022;-60
2022/09/12 05:25:24;;;;;;;4.60;1.30;;;22.90;67.70;;;;;;5044880;28;21026;-59
2022/09/12 05:27:52;;;;;;;8.60;1.20;;;22.90;67.90;;;;;;5039688;28;20021;-60
2022/09/12 05:30:17;;;;;;;3.60;1.40;;;22.90;67.90;;;;;;5050354;28;20742;-59
2022/09/12 05:32:43;;;;;;;2.72;1.20;;;23.00;68.20;;;;;;5041754;28;20025;-59
2022/09/12 05:35:10;;;;;;;6.80;1.80;;;23.00;68.40;;;;;;5038101;28;20547;-59
2022/09/12 05:37:36;;;;;;;4.13;1.30;;;23.00;68.30;;;;;;5039028;28;20367;-59
2022/09/12 05:40:06;;;;;;;3.75;1.27;;;23.00;68.20;;;;;;5045862;28;20056;-59
2022/09/12 05:42:32;;;;;;;4.38;1.30;;;23.00;68.40;;;;;;5043366;28;20551;-60
2022/09/12 05:44:57;;;;;;;6.47;1.45;;;23.00;68.30;;;;;;5045316;28;20033;-59
2022/09/12 05:47:23;;;;;;;4.47;1.20;;;23.00;68.30;;;;;;5044972;28;20042;-59
2022/09/12 05:49:51;;;;;;;7.32;1.33;;;23.00;68.30;;;;;;5043429;28;20140;-60
2022/09/12 05:52:16;;;;;;;3.63;1.48;;;23.00;68.30;;;;;;5042892;28;20040;-59
2022/09/12 05:54:42;;;;;;;6.85;1.65;;;23.00;68.30;;;;;;5039589;28;20045;-60
2022/09/12 05:57:08;;;;;;;3.08;1.50;;;23.00;68.30;;;;;;5041585;28;20029;-59
2022/09/12 05:59:34;;;;;;;6.57;1.50;;;23.00;68.30;;;;;;5045660;28;20025;-59
2022/09/12 06:01:59;;;;;;;4.57;1.60;;;23.00;68.40;;;;;;5042751;28;20091;-59
2022/09/12 06:04:25;;;;;;;5.82;1.63;;;23.00;68.40;;;;;;5045321;28;20428;-59
2022/09/12 06:06:51;;;;;;;5.13;1.80;;;23.00;68.50;;;;;;5042662;28;20488;-59
2022/09/12 06:09:16;;;;;;;2.75;1.25;;;23.00;68.50;;;;;;5042618;28;20439;-59
2022/09/12 06:11:43;;;;;;;6.55;1.50;;;23.00;68.50;;;;;;5042183;28;20493;-59
2022/09/12 06:14:10;;;;;;;6.43;1.77;;;23.00;68.30;;;;;;5042398;28;20118;-59
2022/09/12 06:16:36;;;;;;;5.13;1.60;;;23.00;68.60;;;;;;5041822;28;20021;-59
2022/09/12 06:19:06;;;;;;;3.65;1.73;;;23.00;68.50;;;;;;5040235;28;20105;-59
2022/09/12 06:21:34;;;;;;;3.30;1.27;;;23.00;68.50;;;;;;5045032;28;20025;-59
2022/09/12 06:23:59;;;;;;;5.38;1.60;;;23.00;68.50;;;;;;5041322;28;20045;-59
2022/09/12 06:26:26;;;;;;;2.95;1.38;;;23.00;68.40;;;;;;5040556;28;20052;-60
2022/09/12 06:28:52;;;;;;;5.50;1.60;;;23.00;68.50;;;;;;5043797;28;20036;-59
2022/09/12 06:31:25;;;;;;;7.18;1.45;;;23.00;68.60;;;;;;5042037;28;20028;-59
2022/09/12 06:33:51;;;;;;;5.88;1.40;;;23.00;68.50;;;;;;5040878;28;20039;-59
2022/09/12 06:36:25;;;;;;;5.22;1.60;;;23.00;68.60;;;;;;5041977;28;20020;-60
2022/09/12 06:38:59;;;;;;;4.65;1.50;;;22.90;69.40;;;;;;5026550;28;20140;-59
2022/09/12 06:41:25;;;;;;;5.82;1.50;;;23.00;68.50;;;;;;5041582;28;20025;-59
2022/09/12 06:43:51;;;;;;;4.20;1.42;;;22.90;68.50;;;;;;5043699;28;20123;-59
2022/09/12 06:46:17;;;;;;;4.93;1.58;;;22.90;68.50;;;;;;5042380;28;20179;-59
2022/09/12 06:48:43;;;;;;;7.00;1.65;;;22.90;68.40;;;;;;5045058;28;20578;-59
2022/09/12 06:51:10;;;;;;;4.13;1.52;;;22.90;68.40;;;;;;5048062;28;20013;-59
2022/09/12 06:53:36;;;;;;;10.52;1.60;;;22.90;68.40;;;;;;5047128;28;20020;-60
2022/09/12 06:56:04;;;;;;;3.72;1.70;;;22.90;68.40;;;;;;5045632;28;20034;-59
2022/09/12 06:58:30;;;;;;;5.20;1.50;;;22.90;68.40;;;;;;5025438;28;20033;-59
2022/09/12 07:01:02;;;;;;;5.68;1.55;;;22.90;68.40;;;;;;5046127;28;20108;-59
2022/09/12 07:03:28;;;;;;;3.78;1.50;;;23.00;68.50;;;;;;5047243;28;20405;-59
2022/09/12 07:05:54;;;;;;;7.13;1.52;;;22.90;68.40;;;;;;5042220;28;20021;-59
2022/09/12 07:08:20;;;;;;;3.08;1.27;;;22.90;68.40;;;;;;5043015;28;20371;-59
2022/09/12 07:10:45;;;;;;;5.30;1.50;;;22.90;68.40;;;;;;5045641;28;20025;-59
2022/09/12 07:13:12;;;;;;;6.22;1.55;;;22.90;68.30;;;;;;5028542;28;20043;-60
2022/09/12 07:15:38;;;;;;;4.20;1.35;;;22.90;68.30;;;;;;5046546;28;20366;-59
2022/09/12 07:18:04;;;;;;;3.67;1.38;;;22.90;68.20;;;;;;5046700;28;20021;-60
2022/09/12 07:20:31;;;;;;;4.22;1.42;;;22.90;68.20;;;;;;5045439;28;20114;-60
2022/09/12 07:22:57;;;;;;;4.13;1.55;;;22.90;68.20;;;;;;5043539;28;20489;-59
2022/09/12 07:25:23;;;;;;;4.13;1.42;;;22.90;68.20;;;;;;5044469;28;20492;-59
2022/09/12 07:27:49;;;;;;;6.47;1.60;;;22.90;68.20;;;;;;5045635;28;20045;-60
2022/09/12 07:30:16;;;;;;;4.80;1.60;;;22.90;68.20;;;;;;5046738;28;20033;-59
2022/09/12 07:32:42;;;;;;;4.68;1.30;;;22.90;68.20;;;;;;5044396;28;20091;-59
2022/09/12 07:35:07;;;;;;;2.78;1.33;;;22.90;68.20;;;;;;5044546;28;20501;-60
2022/09/12 07:37:33;;;;;;;5.03;1.45;;;22.90;68.10;;;;;;5029093;28;20567;-59
2022/09/12 07:40:00;;;;;;;3.22;1.20;;;22.90;68.10;;;;;;5044441;28;20029;-59
2022/09/12 07:42:25;;;;;;;5.43;1.33;;;23.00;68.10;;;;;;5045183;28;20017;-59
2022/09/12 07:44:52;;;;;;;3.80;1.20;;;23.00;68.10;;;;;;5045781;28;20063;-60
2022/09/12 07:47:18;;;;;;;4.75;1.63;;;22.90;68.00;;;;;;5044862;28;20048;-59
2022/09/12 07:49:43;;;;;;;3.17;1.30;;;23.00;68.00;;;;;;5042521;28;20332;-59
2022/09/12 07:52:09;;;;;;;8.65;1.70;;;23.00;68.00;;;;;;5045668;28;20515;-60
2022/09/12 07:54:35;;;;;;;4.72;1.48;;;23.00;67.90;;;;;;5043956;28;20033;-60
2022/09/12 07:57:01;;;;;;;4.00;1.27;;;23.00;67.80;;;;;;5027219;28;20061;-59
2022/09/12 07:59:27;;;;;;;3.67;1.30;;;23.00;67.90;;;;;;5043740;28;20033;-59
2022/09/12 08:01:53;;;;;;;2.63;1.40;;;23.00;67.80;;;;;;5045459;28;20558;-60
2022/09/12 08:04:18;;;;;;;5.82;1.63;;;23.00;67.70;;;;;;5042704;28;20029;-59
2022/09/12 08:06:44;;;;;;;3.78;1.40;;;23.00;67.70;;;;;;5043571;28;20047;-60
2022/09/12 08:09:11;;;;;;;3.03;1.35;;;23.00;67.50;;;;;;5043850;28;20075;-59
2022/09/12 08:11:37;;;;;;;2.35;1.20;;;23.00;67.60;;;;;;5046132;28;20489;-59
2022/09/12 08:14:04;;;;;;;3.40;1.30;;;23.00;67.60;;;;;;5042666;28;20099;-58
2022/09/12 08:16:30;;;;;;;6.13;1.80;;;23.00;67.50;;;;;;5044610;28;20472;-59
2022/09/12 08:18:56;;;;;;;2.92;1.25;;;23.00;67.50;;;;;;5043391;28;20492;-59
2022/09/12 08:21:23;;;;;;;3.88;1.50;;;23.00;67.50;;;;;;5043157;28;20079;-59
2022/09/12 08:23:53;;;;;;;3.95;1.40;;;23.00;67.30;;;;;;5044740;28;20024;-59
2022/09/12 08:26:19;;;;;;;3.55;1.20;;;23.00;67.30;;;;;;5044984;28;20108;-58
2022/09/12 08:28:45;;;;;;;3.10;1.30;;;23.10;67.30;;;;;;5043919;28;20104;-59
2022/09/12 08:31:12;;;;;;;3.10;1.38;;;23.00;67.20;;;;;;5043744;28;20033;-58
2022/09/12 08:33:38;;;;;;;2.88;1.30;;;23.10;67.30;;;;;;5042628;28;20076;-60
2022/09/12 08:36:13;;;;;;;2.70;1.40;;;23.10;67.30;;;;;;5044294;28;20033;-59
2022/09/12 08:38:41;;;;;;;3.10;1.40;;;23.10;67.30;;;;;;5044358;28;20033;-59
2022/09/12 08:41:09;;;;;;;2.10;1.33;;;23.10;67.30;;;;;;5042347;28;20029;-59
2022/09/12 08:43:48;;;;;;;3.38;1.52;;;23.10;67.30;;;;;;5043832;28;20032;-58
2022/09/12 08:46:41;;;;;;;3.00;1.30;;;23.10;67.30;;;;;;5027918;28;20032;-58
2022/09/12 08:49:12;;;;;;;3.13;1.38;;;23.10;67.30;;;;;;5014300;28;20060;-59
2022/09/12 08:51:38;;;;;;;2.90;1.20;;;23.10;67.20;;;;;;5026500;28;20094;-59
2022/09/12 08:54:03;;;;;;;2.22;1.30;;;23.10;67.40;;;;;;5023849;28;20083;-59
2022/09/12 08:56:31;;;;;;;3.55;1.38;;;23.10;67.50;;;;;;5041758;28;20028;-58
2022/09/12 08:58:56;;;;;;;2.70;1.30;;;23.10;67.40;;;;;;5026403;28;20438;-59
2022/09/12 09:01:34;;;;;;;3.25;1.48;;;23.10;67.30;;;;;;5042570;28;20031;-58
2022/09/12 09:04:04;;;;;;;2.65;1.35;;;23.20;67.40;;;;;;5025388;28;20107;-59
2022/09/12 09:06:51;;;;;;;2.08;1.15;;;23.20;67.40;;;;;;5028027;28;20390;-59
2022/09/12 09:09:27;;;;;;;1.85;1.20;;;23.10;67.20;;;;;;5042127;28;20036;-59
2022/09/12 09:12:28;;;;;;;4.15;1.40;;;23.10;67.40;;;;;;5026288;28;20292;-58
2022/09/12 09:15:10;;;;;;;3.10;1.45;;;23.10;67.40;;;;;;5043599;28;20110;-59
2022/09/12 09:17:50;;;;;;;2.33;1.25;;;23.20;67.40;;;;;;5043730;28;20041;-59
2022/09/12 09:20:45;;;;;;;2.35;1.40;;;23.20;67.40;;;;;;5039831;28;20171;-58
2022/09/12 09:23:25;;;;;;;3.80;1.55;;;23.20;67.40;;;;;;4985628;28;20097;-59
2022/09/12 09:25:59;;;;;;;2.25;1.13;;;23.20;67.30;;;;;;4983080;28;20688;-58
2022/09/12 09:28:46;;;;;;;3.08;1.40;;;23.20;67.20;;;;;;4985675;28;20038;-58
2022/09/12 09:31:14;;;;;;;2.88;1.23;;;23.20;67.20;;;;;;4986293;28;20065;-58
2022/09/12 09:33:40;;;;;;;3.35;1.20;;;23.30;67.30;;;;;;4985695;28;20478;-60
2022/09/12 09:36:21;;;;;;;5.70;1.50;;;23.30;67.20;;;;;;4985721;28;20049;-58
2022/09/12 09:38:58;;;;;;;2.28;1.17;;;23.30;67.20;;;;;;4984078;28;20033;-59
2022/09/12 09:42:02;;;;;;;3.03;1.30;;;23.30;67.30;;;;;;4982314;28;20574;-58
2022/09/12 09:44:28;;;;;;;3.90;1.35;;;23.30;67.20;;;;;;4985835;28;20037;-60
2022/09/12 09:46:54;;;;;;;3.80;1.20;;;23.30;67.60;;;;;;4969473;28;20047;-58
2022/09/12 09:49:20;;;;;;;1.98;1.20;;;23.30;67.40;;;;;;4978249;28;20054;-58
2022/09/12 09:51:46;;;;;;;3.03;1.10;;;23.30;67.30;;;;;;4984911;28;20026;-58
2022/09/12 09:54:23;;;;;;;3.20;1.20;;;23.40;67.40;;;;;;4984965;28;20113;-58
2022/09/12 09:56:49;;;;;;;2.17;1.23;;;23.40;67.50;;;;;;4968266;28;20537;-58
2022/09/12 09:59:27;;;;;;;3.70;1.60;;;23.40;67.60;;;;;;4999544;28;20044;-58
2022/09/12 10:02:02;;;;;;;4.68;1.30;;;23.50;67.40;;;;;;5039612;28;20131;-58
2022/09/12 10:04:38;;;;;;;3.30;1.30;;;23.50;67.90;;;;;;5022723;28;20462;-59
2022/09/12 10:07:03;;;;;;;2.47;1.23;;;23.50;68.00;;;;;;5023807;28;20078;-58
2022/09/12 10:09:33;;;;;;;3.15;1.20;;;23.50;67.90;;;;;;5038223;28;20041;-58
2022/09/12 10:12:00;;;;;;;2.65;1.20;;;23.50;67.70;;;;;;5041790;28;20464;-59
2022/09/12 10:14:38;;;;;;;3.53;1.30;;;23.60;67.50;;;;;;5025902;28;20048;-59
2022/09/12 10:17:23;;;;;;;6.97;1.38;;;23.60;67.60;;;;;;5042542;28;20087;-59
2022/09/12 10:19:48;;;;;;;3.17;1.20;;;23.60;67.40;;;;;;5041148;28;20049;-59
2022/09/12 10:22:16;;;;;;;4.13;1.27;;;23.70;67.40;;;;;;5025634;28;20025;-58
2022/09/12 10:24:45;;;;;;;3.55;1.20;;;23.70;67.30;;;;;;5044756;28;20025;-58
2022/09/12 10:27:11;;;;;;;5.40;1.27;;;23.70;67.10;;;;;;5029242;28;20021;-58
2022/09/12 10:29:46;;;;;;;2.92;1.40;;;23.70;67.30;;;;;;5045593;28;20090;-58
2022/09/12 10:32:12;;;;;;;3.63;1.30;;;23.80;67.10;;;;;;5043448;28;20028;-59
2022/09/12 10:34:42;;;;;;;6.80;1.20;;;23.80;67.20;;;;;;5029153;28;20486;-58
2022/09/12 10:37:09;;;;;;;5.18;1.35;;;23.80;67.00;;;;;;5031321;28;20052;-58
2022/09/12 10:39:36;;;;;;;3.63;1.35;;;23.80;67.00;;;;;;5031447;28;20095;-58
2022/09/12 10:42:03;;;;;;;2.65;1.20;;;23.80;66.90;;;;;;5043516;28;20047;-58
2022/09/12 10:44:29;;;;;;;2.40;1.00;;;23.80;67.00;;;;;;5045459;28;20028;-58
2022/09/12 10:46:56;;;;;;;3.80;1.25;;;23.90;66.80;;;;;;5045528;28;20120;-60
2022/09/12 10:49:36;;;;;;;2.92;1.20;;;23.90;66.80;;;;;;5027532;28;20477;-58
2022/09/12 10:52:22;;;;;;;2.17;1.10;;;23.90;66.70;;;;;;5044863;28;20406;-59
2022/09/12 10:54:47;;;;;;;3.42;1.20;;;24.00;66.70;;;;;;5042796;28;20603;-58
2022/09/12 10:57:39;;;;;;;5.90;1.73;;;24.00;66.60;;;;;;5028578;28;20113;-58
2022/09/12 11:00:19;;;;;;;4.43;1.30;;;24.10;66.80;;;;;;5046297;28;20035;-59
2022/09/12 11:02:53;;;;;;;5.03;1.25;;;24.10;66.60;;;;;;5030275;28;20054;-58
2022/09/12 11:05:46;;;;;;;4.85;1.20;;;24.10;66.30;;;;;;5043553;28;20029;-59
2022/09/12 11:08:18;;;;;;;5.20;1.92;;;24.10;66.60;;;;;;5028705;28;20029;-59
2022/09/12 11:10:59;;;;;;;4.05;1.30;;;24.10;66.70;;;;;;5044675;28;20020;-58
2022/09/12 11:13:55;;;;;;;5.18;1.42;;;24.10;66.40;;;;;;5044210;28;20033;-59
2022/09/12 11:16:46;;;;;;;7.47;1.48;;;24.10;66.60;;;;;;5045933;28;20653;-62
2022/09/12 11:19:26;;;;;;;5.78;1.23;;;24.10;66.50;;;;;;4968828;28;20130;-65
2022/09/12 11:22:29;;;;;;;4.45;1.17;;;24.10;66.40;;;;;;4961461;28;20046;-64
2022/09/12 11:25:11;;;;;;;3.15;1.63;;;24.10;66.50;;;;;;4967680;28;20515;-65
2022/09/12 11:28:03;;;;;;;3.40;1.38;;;24.10;66.60;;;;;;4960066;28;20031;-63
2022/09/12 11:30:38;;;;;;;6.53;1.60;;;24.10;66.50;;;;;;4949761;28;20038;-65
2022/09/12 11:33:25;;;;;;;7.43;1.40;;;24.20;66.40;;;;;;4934315;28;20034;-65
2022/09/12 11:35:51;;;;;;;4.20;1.52;;;24.20;66.40;;;;;;4959551;28;20043;-67
2022/09/12 11:38:19;;;;;;;3.50;1.40;;;24.20;66.40;;;;;;4968746;28;20035;-66
2022/09/12 11:40:47;;;;;;;3.35;1.10;;;24.30;66.60;;;;;;4967549;28;20081;-67
2022/09/12 11:43:28;;;;;;;3.65;1.40;;;24.30;67.60;;;;;;4968149;28;20050;-67
2022/09/12 11:45:53;;;;;;;5.00;1.60;;;24.30;66.50;;;;;;4962287;28;20035;-67
2022/09/12 11:48:37;;;;;;;3.90;1.48;;;24.30;66.50;;;;;;4968236;28;20027;-66
2022/09/12 11:51:04;;;;;;;4.38;1.40;;;24.30;66.50;;;;;;4967652;28;20030;-65
2022/09/12 11:53:33;;;;;;;4.82;1.50;;;24.40;67.00;;;;;;4958119;28;20034;-66
2022/09/12 11:56:04;;;;;;;5.22;1.42;;;24.40;66.60;;;;;;4988606;28;20041;-64
2022/09/12 11:58:29;;;;;;;2.97;1.40;;;24.40;66.60;;;;;;5028306;28;20025;-62
2022/09/12 12:01:09;;;;;;;5.32;1.38;;;24.40;66.40;;;;;;5046372;28;20505;-62
2022/09/12 12:03:43;;;;;;;2.70;1.40;;;24.40;66.50;;;;;;5045883;28;20083;-63
2022/09/12 12:06:20;;;;;;;4.22;1.38;;;24.40;66.50;;;;;;5042664;28;20471;-63
2022/09/12 12:08:46;;;;;;;2.75;1.20;;;24.50;66.40;;;;;;5041478;28;20037;-62
2022/09/12 12:11:28;;;;;;;3.42;1.50;;;24.50;66.40;;;;;;5027847;28;20036;-62
2022/09/12 12:13:56;;;;;;;4.00;1.30;;;24.50;66.50;;;;;;5023799;28;20063;-62
2022/09/12 12:16:32;;;;;;;4.13;1.42;;;24.50;66.40;;;;;;5026111;28;20080;-62
2022/09/12 12:19:03;;;;;;;4.15;1.30;;;24.50;66.40;;;;;;5029291;28;20037;-65
2022/09/12 12:21:36;;;;;;;4.50;1.40;;;24.60;66.30;;;;;;5027430;28;20473;-64
2022/09/12 12:24:08;;;;;;;4.13;1.30;;;24.60;66.30;;;;;;5044219;28;20110;-62
2022/09/12 12:26:39;;;;;;;3.58;1.27;;;24.60;66.20;;;;;;5044411;28;20021;-63
2022/09/12 12:29:12;;;;;;;3.83;1.65;;;24.60;66.20;;;;;;5042663;28;20025;-66
2022/09/12 12:32:02;;;;;;;5.25;1.50;;;24.70;66.50;;;;;;5040638;28;22217;-62
2022/09/12 12:34:41;;;;;;;5.07;1.30;;;24.70;66.20;;;;;;5043752;28;20425;-61
2022/09/12 12:37:19;;;;;;;5.93;1.60;;;24.70;66.20;;;;;;5039980;28;20029;-60
2022/09/12 12:39:59;;;;;;;6.95;1.58;;;24.70;66.20;;;;;;5042024;28;20061;-62
2022/09/12 12:42:34;;;;;;;3.78;1.40;;;24.70;66.10;;;;;;5038788;28;20559;-61
2022/09/12 12:45:00;;;;;;;;;;;24.80;66.10;;;;;;5043716;28;20021;-61
2022/09/12 12:47:40;;;;;;;7.50;1.40;;;24.80;66.10;;;;;;5041205;28;19955;-61
2022/09/12 12:50:20;;;;;;;3.47;1.40;;;24.80;66.00;;;;;;5022862;28;20400;-61
2022/09/12 12:52:49;;;;;;;4.57;1.40;;;24.80;65.90;;;;;;5042867;28;20043;-60
2022/09/12 12:55:41;;;;;;;3.95;1.33;;;24.80;65.80;;;;;;5042028;28;20033;-62
2022/09/12 12:58:39;;;;;;;3.22;1.50;;;24.80;65.80;;;;;;5031604;28;20135;-59
2022/09/12 13:01:12;;;;;;;4.75;1.60;;;24.90;65.80;;;;;;5042400;28;20618;-58
2022/09/12 13:03:43;;;;;;;3.83;1.47;;;24.80;65.70;;;;;;5023415;28;20413;-59
2022/09/12 13:06:38;;;;;;;4.47;1.60;;;24.90;65.60;;;;;;5025765;28;20033;-59
2022/09/12 13:09:08;;;;;;;2.17;1.30;;;24.90;65.50;;;;;;5027699;28;20036;-59